Time;durP1;ratioP1;P1;durP2;ratioP2;P2;SDS_P1;SDS_P2;PMS_P1;PMS_P2;Temp;Humidity;BMP_temperature;BMP_pressure;BME280_temperature;BME280_humidity;BME280_pressure;Samples;Min_cycle;Max_cycle;Signal;HPM_P1;HPM_P2
2022/09/09 00:02:21;;;;;;;5.35;4.95;;;19.90;78.30;;;;;;5047445;28;20241;-70
2022/09/09 00:05:01;;;;;;;5.30;5.03;;;19.80;78.40;;;;;;5054255;28;20183;-70
2022/09/09 00:07:51;;;;;;;4.82;4.57;;;19.80;77.70;;;;;;5048230;28;20223;-70
2022/09/09 00:10:29;;;;;;;4.75;4.45;;;19.70;79.30;;;;;;5053385;28;20179;-70
2022/09/09 00:13:15;;;;;;;5.15;4.75;;;19.70;78.10;;;;;;5055096;28;20191;-70
2022/09/09 00:15:56;;;;;;;4.55;4.25;;;19.60;78.50;;;;;;5047500;28;20188;-71
2022/09/09 00:18:40;;;;;;;5.00;4.63;;;19.60;78.20;;;;;;5051252;28;20183;-70
2022/09/09 00:21:12;;;;;;;4.50;4.20;;;19.50;79.00;;;;;;5051061;28;20566;-70
2022/09/09 00:23:43;;;;;;;4.75;4.43;;;19.50;79.10;;;;;;5048040;28;20175;-71
2022/09/09 00:26:30;;;;;;;4.72;4.40;;;19.50;79.00;;;;;;5049305;28;20222;-70
2022/09/09 00:29:08;;;;;;;4.47;4.28;;;19.40;77.80;;;;;;5047616;28;20211;-70
2022/09/09 00:31:37;;;;;;;4.70;4.40;;;19.40;77.20;;;;;;5052076;28;20309;-70
2022/09/09 00:34:17;;;;;;;4.80;4.50;;;19.40;78.20;;;;;;5046019;28;20183;-70
2022/09/09 00:36:44;;;;;;;5.32;4.93;;;19.40;78.70;;;;;;5049596;28;20669;-70
2022/09/09 00:39:32;;;;;;;5.00;4.70;;;19.40;78.80;;;;;;5050478;28;20187;-70
2022/09/09 00:42:13;;;;;;;4.47;4.20;;;19.30;77.40;;;;;;5048461;28;20953;-71
2022/09/09 00:44:50;;;;;;;5.25;4.88;;;19.30;77.80;;;;;;5045214;28;20214;-70
2022/09/09 00:47:40;;;;;;;5.72;5.25;;;19.30;77.90;;;;;;5047554;28;20175;-70
2022/09/09 00:50:43;;;;;;;5.45;5.00;;;19.30;77.70;;;;;;5054254;28;20618;-70
2022/09/09 00:53:15;;;;;;;5.28;4.88;;;19.20;77.50;;;;;;5048365;28;20191;-70
2022/09/09 00:56:07;;;;;;;5.85;5.25;;;19.20;78.10;;;;;;5053822;28;20790;-70
2022/09/09 00:58:33;;;;;;;4.55;4.25;;;19.20;76.50;;;;;;5051527;28;20262;-70
2022/09/09 01:01:06;;;;;;;4.97;4.50;;;19.20;77.80;;;;;;5048223;28;20290;-70
2022/09/09 01:03:54;;;;;;;5.38;4.97;;;19.20;76.80;;;;;;5054211;28;20267;-70
2022/09/09 01:06:31;;;;;;;4.95;4.70;;;19.20;77.50;;;;;;5045714;28;20679;-71
2022/09/09 01:08:56;;;;;;;4.43;4.22;;;19.20;80.60;;;;;;5049547;28;20297;-69
2022/09/09 01:11:25;;;;;;;5.32;4.68;;;19.20;81.40;;;;;;5048932;28;20286;-70
2022/09/09 01:14:03;;;;;;;5.60;5.20;;;19.20;81.30;;;;;;5048390;28;20183;-69
2022/09/09 01:16:31;;;;;;;5.25;4.90;;;19.10;80.00;;;;;;5048387;28;20671;-69
2022/09/09 01:18:59;;;;;;;5.47;4.85;;;18.90;80.30;;;;;;5053691;28;20187;-70
2022/09/09 01:21:44;;;;;;;5.30;4.90;;;18.90;80.30;;;;;;5046578;28;20184;-70
2022/09/09 01:24:27;;;;;;;5.70;5.30;;;18.90;79.90;;;;;;5064671;28;20249;-70
2022/09/09 01:26:58;;;;;;;4.93;4.63;;;18.90;79.70;;;;;;5053286;28;20183;-70
2022/09/09 01:29:24;;;;;;;4.28;3.97;;;18.90;79.60;;;;;;5049545;28;20199;-70
2022/09/09 01:31:55;;;;;;;4.75;4.45;;;18.80;79.10;;;;;;5050308;28;20187;-70
2022/09/09 01:34:22;;;;;;;4.78;4.38;;;18.80;79.30;;;;;;5049851;28;20184;-72
2022/09/09 01:37:05;;;;;;;5.20;4.80;;;18.90;80.30;;;;;;5047420;28;20241;-70
2022/09/09 01:39:32;;;;;;;9.02;4.30;;;18.90;79.80;;;;;;5048167;28;20180;-69
2022/09/09 01:41:58;;;;;;;5.18;4.75;;;18.90;80.90;;;;;;5047745;28;20175;-69
2022/09/09 01:44:26;;;;;;;4.55;4.35;;;18.90;79.80;;;;;;5051061;28;20197;-69
2022/09/09 01:46:51;;;;;;;6.15;4.60;;;18.80;79.20;;;;;;5049421;28;20179;-69
2022/09/09 01:49:18;;;;;;;4.72;4.43;;;18.80;78.90;;;;;;5050218;28;20211;-69
2022/09/09 01:51:49;;;;;;;5.43;5.03;;;18.80;79.20;;;;;;5049795;28;20566;-69
2022/09/09 01:54:15;;;;;;;5.20;4.72;;;18.80;77.90;;;;;;5053098;28;20751;-69
2022/09/09 01:56:55;;;;;;;5.25;4.80;;;18.80;79.00;;;;;;5045938;28;20175;-69
2022/09/09 01:59:45;;;;;;;4.70;4.35;;;18.80;78.30;;;;;;5048458;28;20191;-70
2022/09/09 02:02:31;;;;;;;4.97;4.68;;;18.80;79.70;;;;;;5050725;28;20175;-70
2022/09/09 02:05:16;;;;;;;5.47;5.07;;;18.80;79.80;;;;;;5049575;28;20704;-71
2022/09/09 02:07:50;;;;;;;4.97;4.63;;;18.80;79.20;;;;;;5046702;28;20214;-71
2022/09/09 02:10:42;;;;;;;4.55;4.30;;;18.80;80.40;;;;;;5046127;28;20673;-70
2022/09/09 02:13:14;;;;;;;4.50;4.20;;;18.80;79.50;;;;;;5051656;28;20618;-71
2022/09/09 02:16:00;;;;;;;4.63;4.30;;;18.80;80.90;;;;;;5044725;28;20179;-70
2022/09/09 02:18:34;;;;;;;5.18;4.80;;;18.70;79.90;;;;;;5047340;28;20189;-70
2022/09/09 02:21:02;;;;;;;5.15;4.72;;;18.70;80.60;;;;;;5046719;28;20187;-70
2022/09/09 02:23:29;;;;;;;7.40;4.75;;;18.70;81.40;;;;;;5050489;28;20264;-70
2022/09/09 02:25:57;;;;;;;4.75;4.35;;;18.70;82.50;;;;;;5047319;28;20194;-70
2022/09/09 02:28:26;;;;;;;5.13;4.72;;;18.60;81.60;;;;;;5044821;28;20296;-70
2022/09/09 02:30:54;;;;;;;5.78;4.95;;;18.60;81.90;;;;;;5048869;28;20925;-71
2022/09/09 02:33:24;;;;;;;8.40;4.78;;;18.60;81.90;;;;;;5049116;28;20259;-70
2022/09/09 02:35:52;;;;;;;5.75;4.25;;;18.60;81.80;;;;;;5048384;28;20259;-70
2022/09/09 02:38:18;;;;;;;5.57;5.00;;;18.60;81.90;;;;;;5048363;28;20183;-71
2022/09/09 02:40:45;;;;;;;5.07;4.72;;;18.50;81.40;;;;;;5047831;28;20195;-70
2022/09/09 02:43:11;;;;;;;5.75;5.18;;;18.50;81.40;;;;;;5047667;28;20669;-70
2022/09/09 02:45:46;;;;;;;5.72;5.03;;;18.50;82.40;;;;;;5046358;28;20279;-70
2022/09/09 02:48:11;;;;;;;5.57;5.18;;;18.50;81.90;;;;;;5062097;28;20222;-70
2022/09/09 02:51:24;;;;;;;4.85;4.55;;;18.50;81.90;;;;;;5051059;28;20770;-71
2022/09/09 02:54:10;;;;;;;5.13;4.82;;;18.50;82.10;;;;;;5029544;28;20195;-71
2022/09/09 02:56:42;;;;;;;5.38;4.97;;;18.50;81.80;;;;;;5025026;28;20184;-71
2022/09/09 02:59:07;;;;;;;5.88;5.45;;;18.50;81.50;;;;;;5029147;28;20211;-71
2022/09/09 03:01:33;;;;;;;5.55;5.15;;;18.40;81.40;;;;;;5030167;28;20196;-71
2022/09/09 03:03:59;;;;;;;5.60;5.00;;;18.40;81.40;;;;;;5034135;28;20318;-71
2022/09/09 03:06:24;;;;;;;4.72;4.43;;;18.40;82.30;;;;;;5032230;28;20192;-71
2022/09/09 03:08:52;;;;;;;5.70;5.28;;;18.40;82.80;;;;;;5032507;28;20223;-71
2022/09/09 03:11:17;;;;;;;5.93;5.43;;;18.40;82.60;;;;;;5016485;28;20756;-71
2022/09/09 03:13:43;;;;;;;5.28;4.97;;;18.40;82.20;;;;;;5030775;28;20188;-71
2022/09/09 03:16:09;;;;;;;5.72;5.20;;;18.30;81.80;;;;;;5027794;28;20183;-71
2022/09/09 03:18:34;;;;;;;6.50;5.18;;;18.30;81.40;;;;;;5031134;28;20187;-70
2022/09/09 03:21:00;;;;;;;5.50;5.13;;;18.20;81.20;;;;;;5038565;28;20310;-71
2022/09/09 03:23:26;;;;;;;5.70;5.30;;;18.20;81.60;;;;;;5041717;28;20196;-71
2022/09/09 03:25:54;;;;;;;5.32;4.95;;;18.20;81.20;;;;;;5038329;28;20237;-71
2022/09/09 03:28:21;;;;;;;5.20;4.88;;;18.20;82.40;;;;;;5034212;28;20305;-71
2022/09/09 03:30:46;;;;;;;5.30;4.85;;;18.20;82.80;;;;;;5050720;28;20210;-71
2022/09/09 03:33:12;;;;;;;4.88;4.57;;;18.20;82.60;;;;;;5055265;28;20187;-71
2022/09/09 03:35:39;;;;;;;5.75;5.03;;;18.20;82.60;;;;;;5052486;28;20174;-71
2022/09/09 03:38:04;;;;;;;5.10;4.70;;;18.10;82.20;;;;;;5049987;28;20198;-71
2022/09/09 03:40:30;;;;;;;5.57;5.18;;;18.10;82.00;;;;;;5051081;28;20188;-71
2022/09/09 03:42:56;;;;;;;5.03;4.75;;;18.00;81.50;;;;;;5052228;28;20183;-71
2022/09/09 03:45:22;;;;;;;5.65;5.18;;;18.00;82.00;;;;;;5055072;28;20179;-72
2022/09/09 03:47:47;;;;;;;5.03;4.72;;;18.00;83.00;;;;;;5048649;28;20214;-71
2022/09/09 03:50:13;;;;;;;5.15;4.65;;;18.00;81.70;;;;;;5052072;28;20262;-71
2022/09/09 03:52:40;;;;;;;5.10;4.72;;;17.90;81.10;;;;;;5053471;28;20311;-71
2022/09/09 03:55:07;;;;;;;5.50;5.20;;;17.90;81.00;;;;;;5048874;28;20218;-72
2022/09/09 03:57:34;;;;;;;4.90;4.60;;;17.90;80.90;;;;;;5049532;28;20195;-72
2022/09/09 04:00:05;;;;;;;7.25;4.97;;;17.90;81.10;;;;;;5052849;28;20183;-72
2022/09/09 04:02:30;;;;;;;5.40;5.00;;;17.90;80.90;;;;;;5044145;28;20759;-71
2022/09/09 04:04:56;;;;;;;5.10;4.80;;;17.90;81.10;;;;;;5051591;28;20184;-71
2022/09/09 04:07:22;;;;;;;5.78;5.38;;;17.90;81.50;;;;;;5051232;28;20180;-71
2022/09/09 04:09:48;;;;;;;5.78;5.40;;;17.90;82.50;;;;;;5051178;28;20687;-72
2022/09/09 04:12:13;;;;;;;5.72;5.22;;;17.90;81.20;;;;;;5047554;28;20211;-72
2022/09/09 04:14:39;;;;;;;5.90;5.32;;;17.90;81.50;;;;;;5047298;28;20263;-72
2022/09/09 04:17:06;;;;;;;5.60;5.20;;;17.90;81.30;;;;;;5045754;28;20179;-72
2022/09/09 04:19:32;;;;;;;5.18;4.72;;;18.00;82.60;;;;;;5051636;28;20188;-72
2022/09/09 04:21:58;;;;;;;6.25;5.45;;;18.00;81.80;;;;;;5049434;28;20211;-72
2022/09/09 04:24:25;;;;;;;5.20;4.85;;;18.00;82.00;;;;;;5051595;28;20184;-71
2022/09/09 04:26:50;;;;;;;6.40;5.50;;;18.00;82.60;;;;;;5050934;28;20241;-72
2022/09/09 04:29:16;;;;;;;5.85;5.22;;;18.00;81.80;;;;;;5052454;28;20662;-72
2022/09/09 04:31:42;;;;;;;5.47;5.07;;;18.00;81.50;;;;;;5047993;28;20270;-72
2022/09/09 04:34:09;;;;;;;6.22;5.68;;;18.00;82.20;;;;;;5053348;28;20210;-71
2022/09/09 04:36:34;;;;;;;5.47;5.07;;;18.00;82.10;;;;;;5053764;28;20183;-72
2022/09/09 04:39:01;;;;;;;7.03;5.03;;;18.00;81.40;;;;;;5053929;28;20634;-70
2022/09/09 04:41:27;;;;;;;5.32;4.82;;;18.00;81.60;;;;;;5047090;28;20187;-70
2022/09/09 04:43:53;;;;;;;5.80;5.28;;;18.00;81.60;;;;;;5050840;28;21086;-72
2022/09/09 04:46:22;;;;;;;6.13;5.22;;;18.00;82.30;;;;;;5051720;28;20653;-71
2022/09/09 04:48:49;;;;;;;5.72;5.20;;;18.00;82.00;;;;;;5051018;28;21233;-71
2022/09/09 04:51:15;;;;;;;5.97;5.63;;;18.10;83.40;;;;;;5053225;28;20299;-71
2022/09/09 04:53:41;;;;;;;6.10;5.20;;;18.10;83.30;;;;;;5047669;28;20183;-71
2022/09/09 04:56:12;;;;;;;5.07;4.75;;;18.10;83.00;;;;;;5051511;28;20194;-71
2022/09/09 04:58:39;;;;;;;5.50;4.97;;;18.10;81.90;;;;;;5050154;28;20188;-71
2022/09/09 05:01:10;;;;;;;5.63;5.22;;;18.10;82.30;;;;;;5057178;28;20187;-71
2022/09/09 05:03:36;;;;;;;5.80;5.25;;;18.10;81.60;;;;;;5049985;28;20190;-72
2022/09/09 05:06:12;;;;;;;6.13;5.13;;;18.20;83.00;;;;;;5039105;28;20179;-72
2022/09/09 05:08:38;;;;;;;5.47;5.05;;;18.20;81.60;;;;;;5047559;28;20272;-71
2022/09/09 05:11:20;;;;;;;7.90;6.13;;;18.20;82.10;;;;;;5053080;28;20689;-71
2022/09/09 05:13:46;;;;;;;6.28;5.63;;;18.20;80.70;;;;;;5053552;28;20183;-73
2022/09/09 05:16:13;;;;;;;5.28;4.88;;;18.30;81.40;;;;;;5053892;28;20203;-71
2022/09/09 05:18:42;;;;;;;4.68;4.47;;;18.30;81.30;;;;;;5050393;28;20184;-72
2022/09/09 05:21:09;;;;;;;4.75;4.45;;;18.30;80.90;;;;;;5049932;28;20179;-71
2022/09/09 05:23:36;;;;;;;5.55;5.20;;;18.40;81.90;;;;;;5051076;28;20179;-71
2022/09/09 05:26:03;;;;;;;6.22;5.63;;;18.40;81.40;;;;;;5050876;28;20257;-72
2022/09/09 05:28:30;;;;;;;5.82;5.30;;;18.50;81.30;;;;;;5047827;28;20222;-71
2022/09/09 05:31:04;;;;;;;5.60;5.10;;;18.60;81.40;;;;;;5045769;28;20660;-72
2022/09/09 05:33:31;;;;;;;5.70;5.30;;;18.60;80.00;;;;;;5054686;28;20186;-72
2022/09/09 05:36:10;;;;;;;4.85;4.55;;;18.70;81.30;;;;;;5050996;28;20194;-72
2022/09/09 05:38:36;;;;;;;4.63;4.32;;;18.80;80.10;;;;;;5046827;28;20274;-71
2022/09/09 05:41:03;;;;;;;5.25;4.95;;;18.80;81.30;;;;;;5052581;28;20270;-71
2022/09/09 05:43:29;;;;;;;5.88;5.38;;;18.90;80.90;;;;;;5048176;28;20237;-71
2022/09/09 05:46:12;;;;;;;6.20;5.07;;;19.00;80.90;;;;;;5049927;28;20186;-70
2022/09/09 05:48:40;;;;;;;6.05;5.55;;;19.00;80.20;;;;;;5078403;28;20294;-69
2022/09/09 05:51:10;;;;;;;5.88;5.47;;;19.10;80.60;;;;;;5047389;28;20449;-69
2022/09/09 05:53:36;;;;;;;5.40;5.00;;;19.20;81.00;;;;;;5053521;28;20175;-68
2022/09/09 05:56:10;;;;;;;5.95;5.40;;;19.30;81.30;;;;;;5050438;28;20244;-69
2022/09/09 05:58:37;;;;;;;5.57;5.15;;;19.30;80.70;;;;;;5046704;28;20272;-70
2022/09/09 06:01:14;;;;;;;6.07;5.68;;;19.40;80.70;;;;;;5063890;28;20183;-71
2022/09/09 06:03:42;;;;;;;5.78;5.38;;;19.40;80.00;;;;;;5049573;28;20187;-70
2022/09/09 06:06:12;;;;;;;5.10;4.72;;;19.50;80.40;;;;;;5049748;28;20186;-69
2022/09/09 06:08:41;;;;;;;4.60;4.13;;;19.50;80.90;;;;;;5047962;28;20208;-71
2022/09/09 06:11:13;;;;;;;4.00;3.70;;;19.60;79.80;;;;;;5048714;28;20183;-70
2022/09/09 06:13:39;;;;;;;5.50;5.10;;;19.60;79.30;;;;;;5050409;28;20244;-70
2022/09/09 06:16:18;;;;;;;5.20;4.90;;;19.70;79.60;;;;;;5052238;28;20245;-70
2022/09/09 06:18:44;;;;;;;6.40;4.45;;;19.80;78.80;;;;;;5064848;28;20599;-70
2022/09/09 06:21:18;;;;;;;4.70;4.45;;;19.80;79.50;;;;;;5053056;28;20275;-70
2022/09/09 06:23:44;;;;;;;4.85;4.47;;;19.90;78.80;;;;;;5051910;28;20183;-71
2022/09/09 06:26:14;;;;;;;4.85;4.55;;;19.90;79.40;;;;;;5048407;28;20183;-71
2022/09/09 06:28:42;;;;;;;4.95;4.65;;;20.00;79.30;;;;;;5051175;28;20214;-71
2022/09/09 06:31:10;;;;;;;4.88;4.50;;;20.10;79.10;;;;;;5051203;28;20197;-71
2022/09/09 06:33:41;;;;;;;4.25;3.78;;;20.20;78.80;;;;;;5049962;28;20569;-71
2022/09/09 06:36:16;;;;;;;5.07;4.43;;;20.20;79.00;;;;;;5050222;28;20282;-71
2022/09/09 06:38:42;;;;;;;4.93;4.50;;;20.30;78.00;;;;;;5051760;28;20186;-72
2022/09/09 06:41:10;;;;;;;4.88;4.43;;;20.40;78.30;;;;;;5048559;28;20584;-69
2022/09/09 06:43:36;;;;;;;5.53;4.25;;;20.40;77.90;;;;;;5047972;28;20186;-74
2022/09/09 06:46:12;;;;;;;4.95;4.65;;;20.50;78.20;;;;;;5044857;28;20261;-72
2022/09/09 06:48:42;;;;;;;5.82;5.15;;;20.50;77.70;;;;;;5049737;28;20210;-72
2022/09/09 06:51:21;;;;;;;5.70;4.80;;;20.60;78.20;;;;;;5047339;28;20187;-74
2022/09/09 06:53:49;;;;;;;5.40;5.00;;;20.60;77.30;;;;;;5049809;28;20268;-71
2022/09/09 06:56:27;;;;;;;4.72;4.50;;;20.70;77.60;;;;;;5050745;28;20181;-71
2022/09/09 06:58:54;;;;;;;5.50;4.97;;;20.80;77.20;;;;;;5053776;28;20196;-71
2022/09/09 07:01:23;;;;;;;5.18;4.88;;;20.90;77.40;;;;;;5053703;28;20191;-72
2022/09/09 07:03:54;;;;;;;4.68;4.38;;;20.90;77.20;;;;;;5069102;28;20194;-71
2022/09/09 07:06:34;;;;;;;4.82;4.55;;;21.00;77.20;;;;;;5055079;28;20278;-70
2022/09/09 07:09:03;;;;;;;6.32;5.07;;;21.00;77.20;;;;;;5049200;28;20322;-70
2022/09/09 07:11:32;;;;;;;4.60;4.40;;;21.10;77.10;;;;;;5048754;28;20202;-70
2022/09/09 07:13:59;;;;;;;4.60;4.22;;;21.20;76.80;;;;;;5052849;28;20183;-70
2022/09/09 07:16:27;;;;;;;4.10;3.90;;;21.30;76.90;;;;;;5052427;28;20183;-70
2022/09/09 07:18:57;;;;;;;4.40;4.20;;;21.40;76.90;;;;;;5050301;28;20196;-70
2022/09/09 07:21:24;;;;;;;4.63;4.32;;;21.50;76.30;;;;;;5053775;28;20221;-70
2022/09/09 07:23:51;;;;;;;4.47;4.13;;;21.60;76.10;;;;;;5052716;28;20187;-72
2022/09/09 07:26:19;;;;;;;5.07;4.78;;;21.70;76.30;;;;;;5051307;28;20684;-71
2022/09/09 07:28:45;;;;;;;4.47;4.28;;;21.80;75.50;;;;;;5052979;28;20230;-70
2022/09/09 07:31:20;;;;;;;4.85;4.57;;;21.90;75.70;;;;;;5047898;28;20657;-69
2022/09/09 07:33:47;;;;;;;3.90;3.80;;;21.90;75.10;;;;;;5055640;28;20257;-71
2022/09/09 07:36:21;;;;;;;5.05;4.50;;;22.00;75.80;;;;;;5085466;28;20265;-71
2022/09/09 07:38:51;;;;;;;5.45;3.97;;;22.10;75.30;;;;;;5052735;28;20186;-70
2022/09/09 07:41:24;;;;;;;5.07;4.78;;;22.20;75.60;;;;;;5054393;28;20191;-71
2022/09/09 07:43:51;;;;;;;4.28;4.03;;;22.30;75.10;;;;;;5051211;28;20204;-72
2022/09/09 07:46:21;;;;;;;4.68;4.47;;;22.40;75.00;;;;;;5053202;28;20190;-71
2022/09/09 07:48:56;;;;;;;6.80;5.05;;;22.60;74.00;;;;;;5048984;28;20207;-75
2022/09/09 07:51:25;;;;;;;4.68;4.38;;;22.60;73.80;;;;;;5052329;28;20233;-76
2022/09/09 07:53:57;;;;;;;4.88;4.57;;;22.70;72.60;;;;;;5052487;28;20182;-74
2022/09/09 07:56:23;;;;;;;3.65;3.45;;;22.80;72.60;;;;;;5048544;28;20183;-75
2022/09/09 07:58:50;;;;;;;5.28;4.07;;;22.90;73.40;;;;;;5054088;28;20189;-73
2022/09/09 08:01:20;;;;;;;4.88;4.38;;;23.00;73.70;;;;;;5053398;28;20191;-74
2022/09/09 08:03:52;;;;;;;5.80;4.57;;;23.20;72.30;;;;;;5053167;28;20188;-73
2022/09/09 08:06:17;;;;;;;4.50;4.30;;;23.40;73.50;;;;;;5054417;28;20190;-73
2022/09/09 08:08:43;;;;;;;4.55;4.25;;;23.60;72.10;;;;;;5051843;28;20219;-74
2022/09/09 08:11:14;;;;;;;4.40;4.00;;;23.80;72.40;;;;;;5047339;28;20260;-73
2022/09/09 08:13:42;;;;;;;7.75;3.85;;;24.00;71.50;;;;;;5048475;28;20262;-75
2022/09/09 08:16:12;;;;;;;4.45;4.10;;;24.30;71.10;;;;;;5053334;28;20210;-74
2022/09/09 08:18:39;;;;;;;3.85;3.60;;;24.50;70.80;;;;;;5048118;28;20336;-74
2022/09/09 08:21:21;;;;;;;3.70;3.50;;;24.80;71.20;;;;;;5048010;28;20191;-75
2022/09/09 08:23:48;;;;;;;5.18;3.72;;;25.00;70.10;;;;;;5049982;28;20184;-71
2022/09/09 08:26:22;;;;;;;5.03;4.53;;;25.20;69.60;;;;;;5053283;28;20183;-73
2022/09/09 08:28:51;;;;;;;3.97;3.67;;;25.50;67.90;;;;;;5054063;28;20217;-75
2022/09/09 08:31:18;;;;;;;4.00;3.85;;;25.70;67.70;;;;;;5052593;28;20188;-77
2022/09/09 08:33:47;;;;;;;3.67;3.58;;;26.00;67.50;;;;;;5054663;28;20204;-75
2022/09/09 08:36:15;;;;;;;4.47;4.07;;;26.20;67.30;;;;;;5047797;28;20183;-75
2022/09/09 08:38:42;;;;;;;4.53;4.13;;;26.40;66.60;;;;;;5047639;28;20749;-75
2022/09/09 08:41:29;;;;;;;3.80;3.58;;;26.60;66.30;;;;;;5051647;28;20197;-74
2022/09/09 08:44:07;;;;;;;3.67;3.58;;;26.90;66.00;;;;;;5052164;28;20222;-75
2022/09/09 08:46:44;;;;;;;4.18;3.92;;;27.20;65.20;;;;;;5050280;28;20183;-75
2022/09/09 08:49:38;;;;;;;4.38;4.18;;;27.30;64.60;;;;;;5070076;28;20608;-75
2022/09/09 08:52:15;;;;;;;3.88;3.67;;;27.40;64.40;;;;;;5044949;28;20187;-75
2022/09/09 08:54:41;;;;;;;4.85;4.43;;;27.70;64.60;;;;;;5050864;28;20214;-75
2022/09/09 08:57:14;;;;;;;5.10;3.60;;;28.10;63.70;;;;;;5048349;28;20223;-75
2022/09/09 08:59:40;;;;;;;4.15;4.05;;;28.50;63.40;;;;;;5053718;28;20281;-75
2022/09/09 09:02:46;;;;;;;4.20;4.00;;;28.90;62.50;;;;;;5053933;28;20187;-75
2022/09/09 09:05:35;;;;;;;3.85;3.65;;;29.40;61.70;;;;;;5046556;28;20581;-75
2022/09/09 09:08:14;;;;;;;3.88;3.67;;;29.90;61.50;;;;;;5055286;28;20246;-74
2022/09/09 09:10:49;;;;;;;4.15;3.85;;;30.30;60.20;;;;;;5049876;28;20183;-75
2022/09/09 09:13:52;;;;;;;5.75;3.58;;;30.80;58.50;;;;;;5053270;28;20183;-74
2022/09/09 09:16:23;;;;;;;4.07;3.67;;;31.50;59.90;;;;;;5016845;28;20682;-74
2022/09/09 09:18:50;;;;;;;4.60;3.70;;;32.10;58.60;;;;;;5017775;28;20314;-74
2022/09/09 09:21:20;;;;;;;3.63;3.42;;;32.50;58.10;;;;;;4998737;28;20200;-75
2022/09/09 09:23:58;;;;;;;5.20;3.90;;;32.70;56.70;;;;;;5015253;28;20490;-74
2022/09/09 09:26:30;;;;;;;5.03;3.80;;;32.60;56.80;;;;;;5015216;28;20188;-74
2022/09/09 09:28:59;;;;;;;3.40;3.30;;;32.60;56.60;;;;;;5020262;28;20223;-74
2022/09/09 09:31:26;;;;;;;3.63;3.53;;;32.50;55.90;;;;;;5010094;28;20175;-74
2022/09/09 09:33:58;;;;;;;3.78;3.65;;;32.40;56.70;;;;;;5027518;28;20187;-76
2022/09/09 09:36:38;;;;;;;4.47;3.95;;;32.10;56.30;;;;;;5017970;28;20200;-74
2022/09/09 09:39:05;;;;;;;3.97;3.72;;;31.90;56.10;;;;;;5029086;28;20307;-74
2022/09/09 09:41:40;;;;;;;4.13;4.00;;;31.70;58.90;;;;;;5013340;28;20213;-72
2022/09/09 09:44:30;;;;;;;4.07;3.85;;;31.60;56.90;;;;;;5023214;28;20199;-74
2022/09/09 09:47:17;;;;;;;3.97;3.75;;;31.60;57.10;;;;;;5025445;28;20192;-74
2022/09/09 09:49:59;;;;;;;3.97;3.78;;;31.80;56.60;;;;;;5026017;28;20274;-73
2022/09/09 09:52:28;;;;;;;4.07;3.95;;;31.90;57.30;;;;;;5036865;28;20217;-74
2022/09/09 09:54:56;;;;;;;3.60;3.50;;;32.00;57.60;;;;;;5059489;28;20175;-74
2022/09/09 09:57:32;;;;;;;3.75;3.65;;;31.90;58.00;;;;;;5057489;28;20184;-74
2022/09/09 10:00:18;;;;;;;4.13;3.92;;;31.80;58.60;;;;;;5072961;28;20182;-74
2022/09/09 10:02:45;;;;;;;4.05;3.85;;;31.60;57.20;;;;;;5063784;28;20175;-74
2022/09/09 10:05:19;;;;;;;4.18;3.88;;;31.40;56.70;;;;;;5056648;28;20184;-73
2022/09/09 10:07:45;;;;;;;4.55;4.25;;;31.20;57.80;;;;;;5059688;28;20665;-74
2022/09/09 10:10:28;;;;;;;3.80;3.70;;;30.80;58.30;;;;;;5061181;28;20176;-74
2022/09/09 10:13:14;;;;;;;3.70;3.55;;;30.60;58.60;;;;;;5061361;28;20270;-74
2022/09/09 10:16:06;;;;;;;4.05;3.85;;;30.40;59.10;;;;;;5057543;28;20181;-73
2022/09/09 10:18:58;;;;;;;4.40;3.85;;;30.30;59.40;;;;;;5064323;28;21098;-72
2022/09/09 10:21:29;;;;;;;3.85;3.72;;;30.00;58.40;;;;;;5058625;28;21186;-73
2022/09/09 10:24:16;;;;;;;4.07;3.88;;;29.80;58.70;;;;;;5059847;28;20270;-73
2022/09/09 10:27:20;;;;;;;4.30;4.10;;;29.60;59.00;;;;;;5051336;28;20183;-74
2022/09/09 10:29:51;;;;;;;4.35;3.90;;;29.40;59.60;;;;;;5048314;28;20607;-74
2022/09/09 10:32:28;;;;;;;3.90;3.70;;;29.20;59.90;;;;;;5045696;28;20258;-73
2022/09/09 10:35:32;;;;;;;4.03;3.85;;;29.10;60.10;;;;;;5048475;28;20183;-74
2022/09/09 10:38:22;;;;;;;5.30;4.60;;;29.00;60.10;;;;;;5023218;28;20188;-74
2022/09/09 10:40:56;;;;;;;4.47;3.85;;;28.90;60.40;;;;;;5005546;28;20685;-74
2022/09/09 10:43:42;;;;;;;4.40;3.97;;;28.90;60.80;;;;;;5023254;28;20204;-74
2022/09/09 10:46:28;;;;;;;5.60;4.35;;;28.90;60.40;;;;;;5023901;28;20282;-74
2022/09/09 10:48:56;;;;;;;4.25;3.97;;;28.80;60.50;;;;;;5022740;28;20224;-75
2022/09/09 10:51:37;;;;;;;3.65;3.55;;;28.60;60.90;;;;;;5022692;28;20874;-74
2022/09/09 10:54:25;;;;;;;4.70;4.28;;;28.50;61.50;;;;;;5009635;28;20743;-74
2022/09/09 10:57:05;;;;;;;4.75;4.30;;;28.30;61.70;;;;;;5024127;28;20188;-74
2022/09/09 10:59:41;;;;;;;5.13;4.60;;;28.30;62.20;;;;;;5005947;28;20187;-73
2022/09/09 11:02:19;;;;;;;8.18;4.32;;;28.40;61.70;;;;;;5023874;28;20196;-73
2022/09/09 11:04:57;;;;;;;4.38;4.07;;;28.30;62.20;;;;;;5023975;28;20184;-75
2022/09/09 11:07:31;;;;;;;6.75;5.10;;;28.10;62.40;;;;;;5024020;28;20192;-75
2022/09/09 11:10:02;;;;;;;5.10;4.72;;;28.10;62.80;;;;;;5023250;28;21272;-75
2022/09/09 11:12:30;;;;;;;5.20;4.53;;;27.90;63.40;;;;;;5005945;28;20199;-75
2022/09/09 11:15:04;;;;;;;5.18;4.80;;;27.90;63.10;;;;;;5043484;28;20242;-75
2022/09/09 11:17:41;;;;;;;7.63;4.82;;;27.80;63.00;;;;;;5056509;28;20581;-76
2022/09/09 11:20:12;;;;;;;5.07;4.72;;;27.80;63.20;;;;;;5055541;28;20183;-75
2022/09/09 11:22:51;;;;;;;5.45;5.15;;;27.80;63.40;;;;;;5049141;28;20203;-75
2022/09/09 11:25:29;;;;;;;6.38;5.47;;;27.90;63.40;;;;;;5051449;28;20661;-73
2022/09/09 11:28:06;;;;;;;5.00;4.75;;;27.90;63.50;;;;;;5049674;28;20210;-75
2022/09/09 11:30:41;;;;;;;5.93;5.43;;;28.00;64.00;;;;;;5050528;28;20667;-75
2022/09/09 11:33:30;;;;;;;5.65;4.97;;;28.00;64.20;;;;;;5054642;28;20186;-72
2022/09/09 11:36:23;;;;;;;5.10;4.82;;;28.10;64.20;;;;;;5023114;28;20204;-74
2022/09/09 11:38:56;;;;;;;5.22;4.78;;;28.20;63.90;;;;;;5021726;28;20726;-74
2022/09/09 11:41:22;;;;;;;6.90;4.80;;;28.30;63.90;;;;;;5024023;28;20345;-73
2022/09/09 11:43:51;;;;;;;5.38;4.82;;;28.30;64.20;;;;;;5019843;28;20998;-74
2022/09/09 11:46:21;;;;;;;5.32;4.95;;;28.30;64.40;;;;;;5006002;28;20193;-74
2022/09/09 11:49:02;;;;;;;8.07;4.85;;;28.40;64.40;;;;;;5023451;28;20247;-73
2022/09/09 11:51:32;;;;;;;5.72;5.25;;;28.40;64.30;;;;;;5022263;28;20204;-75
2022/09/09 11:54:04;;;;;;;4.95;4.57;;;28.50;64.30;;;;;;5021536;28;20752;-75
2022/09/09 11:56:33;;;;;;;5.45;5.15;;;28.60;64.30;;;;;;5008136;28;20433;-76
2022/09/09 11:59:05;;;;;;;5.10;4.75;;;28.80;64.30;;;;;;5027901;28;20195;-75
2022/09/09 12:01:42;;;;;;;5.07;4.60;;;28.90;64.60;;;;;;5025762;28;20257;-82
2022/09/09 12:04:33;;;;;;;5.38;5.10;;;29.20;64.10;;;;;;5024401;28;20184;-75
2022/09/09 12:07:20;;;;;;;6.28;4.93;;;29.50;63.60;;;;;;5022756;28;20235;-74
2022/09/09 12:09:56;;;;;;;5.47;5.07;;;30.00;63.50;;;;;;5021648;28;20224;-76
2022/09/09 12:12:23;;;;;;;6.13;5.72;;;30.70;62.80;;;;;;5030124;28;20221;-76
2022/09/09 12:15:07;;;;;;;6.05;5.60;;;31.30;61.50;;;;;;5052832;28;20183;-76
2022/09/09 12:17:47;;;;;;;5.30;5.03;;;31.80;60.80;;;;;;5066006;28;20632;-76
2022/09/09 12:20:15;;;;;;;5.70;5.20;;;32.40;60.80;;;;;;5051879;28;20284;-75
2022/09/09 12:23:04;;;;;;;7.40;5.22;;;32.70;58.90;;;;;;5050723;28;20179;-76
2022/09/09 12:25:45;;;;;;;6.57;5.13;;;33.00;58.70;;;;;;5052644;28;20256;-76
2022/09/09 12:28:16;;;;;;;6.15;5.40;;;33.20;58.30;;;;;;5053952;28;20213;-74
2022/09/09 12:31:28;;;;;;;5.13;4.82;;;33.40;58.60;;;;;;5056542;28;20800;-75
2022/09/09 12:33:54;;;;;;;5.50;5.00;;;33.50;58.50;;;;;;5030255;28;20187;-76
2022/09/09 12:36:29;;;;;;;5.72;5.22;;;33.70;56.50;;;;;;5029400;28;20241;-76
2022/09/09 12:38:59;;;;;;;7.80;5.13;;;33.80;58.00;;;;;;5031596;28;20281;-76
2022/09/09 12:41:27;;;;;;;5.68;5.20;;;33.80;57.70;;;;;;5032801;28;20282;-76
2022/09/09 12:44:05;;;;;;;5.03;4.68;;;33.70;57.50;;;;;;5027021;28;20653;-76
2022/09/09 12:46:44;;;;;;;5.28;4.95;;;33.60;57.80;;;;;;5026937;28;20352;-77
2022/09/09 12:49:33;;;;;;;5.28;4.97;;;33.40;57.80;;;;;;5030552;28;20212;-75
2022/09/09 12:52:13;;;;;;;6.18;5.60;;;33.10;57.30;;;;;;5029770;28;20343;-75
2022/09/09 12:54:48;;;;;;;5.70;5.40;;;32.90;58.00;;;;;;5030023;28;20183;-76
2022/09/09 12:57:15;;;;;;;5.50;5.18;;;32.80;58.20;;;;;;5027966;28;20293;-75
2022/09/09 12:59:45;;;;;;;5.05;4.85;;;32.50;58.00;;;;;;5027022;28;21014;-78
2022/09/09 13:02:25;;;;;;;6.05;5.45;;;32.40;58.60;;;;;;5012036;28;20188;-78
2022/09/09 13:04:51;;;;;;;5.68;5.28;;;32.50;58.40;;;;;;5047700;28;20191;-78
2022/09/09 13:07:19;;;;;;;5.18;4.88;;;32.60;59.10;;;;;;5052288;28;20294;-76
2022/09/09 13:09:46;;;;;;;6.05;5.43;;;32.60;59.50;;;;;;5048070;28;20877;-76
2022/09/09 13:12:18;;;;;;;6.15;5.70;;;32.70;59.30;;;;;;5049931;28;20694;-75
2022/09/09 13:14:48;;;;;;;3.67;3.58;;;32.60;58.80;;;;;;5047328;28;20746;-75
2022/09/09 13:17:25;;;;;;;5.75;3.28;;;32.60;58.60;;;;;;5051536;28;20187;-75
2022/09/09 13:19:52;;;;;;;3.83;3.63;;;32.50;58.60;;;;;;5050785;28;20206;-75